Time;durP1;ratioP1;P1;durP2;ratioP2;P2;SDS_P1;SDS_P2;PMS_P1;PMS_P2;Temp;Humidity;BMP_temperature;BMP_pressure;BME280_temperature;BME280_humidity;BME280_pressure;Samples;Min_cycle;Max_cycle;Signal;HPM_P1;HPM_P2
2023/04/30 00:01:38;;;;;;;8.45;3.53;;;8.50;99.90;;;;;;5062629;28;20552;-89
2023/04/30 00:04:04;;;;;;;6.60;2.80;;;8.60;99.90;;;;;;5084951;28;20198;-89
2023/04/30 00:06:30;;;;;;;8.65;3.47;;;9.00;99.90;;;;;;5034316;28;20039;-88
2023/04/30 00:08:56;;;;;;;7.60;3.38;;;8.60;99.90;;;;;;5058680;28;20449;-89
2023/04/30 00:11:21;;;;;;;8.18;3.53;;;8.60;99.90;;;;;;5059924;28;20055;-89
2023/04/30 00:13:47;;;;;;;12.50;3.45;;;8.60;99.90;;;;;;5058214;28;20034;-88
2023/04/30 00:16:12;;;;;;;8.02;3.33;;;8.60;99.90;;;;;;5058281;28;20044;-89
2023/04/30 00:18:38;;;;;;;10.52;3.85;;;8.80;99.90;;;;;;5051501;28;20150;-89
2023/04/30 00:21:04;;;;;;;8.20;3.33;;;8.40;99.90;;;;;;5034358;28;20025;-89
2023/04/30 00:23:29;;;;;;;6.30;3.00;;;8.30;99.90;;;;;;5048739;28;20453;-89
2023/04/30 00:25:55;;;;;;;6.45;2.42;;;8.20;99.90;;;;;;5051644;28;20041;-89
2023/04/30 00:28:20;;;;;;;7.78;3.15;;;8.10;99.90;;;;;;5060826;28;20033;-89
2023/04/30 00:30:46;;;;;;;9.35;3.67;;;8.00;99.90;;;;;;5084945;28;20037;-89
2023/04/30 00:33:12;;;;;;;8.45;3.30;;;8.10;99.90;;;;;;5041658;28;20029;-89
2023/04/30 00:35:37;;;;;;;8.85;2.90;;;8.00;99.90;;;;;;5051568;28;20068;-89
2023/04/30 00:38:03;;;;;;;8.57;3.40;;;7.90;99.90;;;;;;5053548;28;20146;-89
2023/04/30 00:40:29;;;;;;;12.90;3.28;;;7.80;99.90;;;;;;5051535;28;20040;-88
2023/04/30 00:42:54;;;;;;;6.00;2.55;;;7.90;99.90;;;;;;5051300;28;20472;-89
2023/04/30 00:45:21;;;;;;;7.43;2.65;;;7.90;99.90;;;;;;5061681;28;20041;-88
2023/04/30 00:47:47;;;;;;;8.00;3.47;;;7.90;99.90;;;;;;5058375;28;20041;-89
2023/04/30 00:50:15;;;;;;;16.50;3.35;;;7.90;99.90;;;;;;5044806;28;20399;-89
2023/04/30 00:52:44;;;;;;;7.38;3.20;;;7.90;99.90;;;;;;5043753;28;20052;-89
2023/04/30 00:55:11;;;;;;;9.88;2.97;;;7.80;99.90;;;;;;5054582;28;20072;-89
2023/04/30 00:57:38;;;;;;;7.25;2.90;;;7.80;99.90;;;;;;5058939;28;20055;-89
2023/04/30 01:00:09;;;;;;;8.68;3.45;;;7.80;99.90;;;;;;5061942;28;20391;-88
2023/04/30 01:02:36;;;;;;;8.07;2.78;;;7.80;99.90;;;;;;5051345;28;20476;-88
2023/04/30 01:05:03;;;;;;;12.32;3.78;;;7.80;99.90;;;;;;5063327;28;20032;-88
2023/04/30 01:07:30;;;;;;;8.95;3.08;;;7.80;99.90;;;;;;5054470;28;20090;-87
2023/04/30 01:09:55;;;;;;;5.35;2.78;;;7.80;99.90;;;;;;5053078;28;20041;-87
2023/04/30 01:12:36;;;;;;;5.28;3.03;;;7.80;99.90;;;;;;5050006;28;20050;-88
2023/04/30 01:15:27;;;;;;;7.18;2.95;;;7.80;99.90;;;;;;5043835;28;20407;-87
2023/04/30 01:18:17;;;;;;;6.40;3.20;;;7.70;99.90;;;;;;5060024;28;20070;-87
2023/04/30 01:20:53;;;;;;;5.68;3.03;;;7.60;99.90;;;;;;5056499;28;20495;-88
2023/04/30 01:23:28;;;;;;;8.25;3.38;;;7.50;99.90;;;;;;5053990;28;20033;-87
2023/04/30 01:26:01;;;;;;;11.48;3.33;;;7.40;99.90;;;;;;5058004;28;20048;-88
2023/04/30 01:28:27;;;;;;;8.07;3.35;;;7.40;99.90;;;;;;5036939;28;20072;-87
2023/04/30 01:30:53;;;;;;;9.65;3.75;;;7.40;99.90;;;;;;5049444;28;20499;-87
2023/04/30 01:33:18;;;;;;;6.95;3.05;;;7.40;99.90;;;;;;5049377;28;20463;-88
2023/04/30 01:36:09;;;;;;;9.00;3.58;;;7.40;99.90;;;;;;5049496;28;20055;-86
2023/04/30 01:39:13;;;;;;;6.15;3.13;;;7.30;99.90;;;;;;5043518;28;20478;-87
2023/04/30 01:42:03;;;;;;;6.07;2.80;;;7.20;99.90;;;;;;5065738;28;20045;-87
2023/04/30 01:45:02;;;;;;;7.43;3.25;;;7.20;99.90;;;;;;5073193;28;20053;-87
2023/04/30 01:47:48;;;;;;;8.07;3.28;;;7.20;99.90;;;;;;5056104;28;20040;-87
2023/04/30 01:50:34;;;;;;;9.95;3.60;;;7.10;99.90;;;;;;5055996;28;20047;-87
2023/04/30 01:53:01;;;;;;;10.68;3.28;;;7.10;99.90;;;;;;5051756;28;20036;-87
2023/04/30 01:55:35;;;;;;;6.43;3.47;;;7.10;99.90;;;;;;5052310;28;20052;-87
2023/04/30 01:58:04;;;;;;;10.38;4.22;;;7.10;99.90;;;;;;5034035;28;20119;-87
2023/04/30 02:00:30;;;;;;;8.13;3.53;;;7.10;99.90;;;;;;5037789;28;20060;-87
2023/04/30 02:02:57;;;;;;;8.73;3.38;;;7.10;99.90;;;;;;5053207;28;20053;-87
2023/04/30 02:05:22;;;;;;;6.30;3.53;;;7.00;99.90;;;;;;5050403;28;20095;-87
2023/04/30 02:07:50;;;;;;;9.95;3.80;;;7.00;99.90;;;;;;5041757;28;20430;-87
2023/04/30 02:10:26;;;;;;;6.85;3.25;;;6.90;99.90;;;;;;5049083;28;20088;-88
2023/04/30 02:12:51;;;;;;;7.30;3.47;;;6.90;99.90;;;;;;5049983;28;20040;-87
2023/04/30 02:15:17;;;;;;;9.25;3.85;;;6.90;99.90;;;;;;5065635;28;20041;-87
2023/04/30 02:17:43;;;;;;;7.75;3.80;;;6.90;99.90;;;;;;5049317;28;20132;-87
2023/04/30 02:20:09;;;;;;;10.93;3.72;;;6.80;99.90;;;;;;5050867;28;20098;-88
2023/04/30 02:22:35;;;;;;;9.90;3.60;;;6.80;99.90;;;;;;5047925;28;20056;-87
2023/04/30 02:25:01;;;;;;;8.18;3.75;;;6.80;99.90;;;;;;5050070;28;20037;-87
2023/04/30 02:27:30;;;;;;;9.60;4.30;;;6.80;99.90;;;;;;5050352;28;20033;-87
2023/04/30 02:29:55;;;;;;;9.48;3.95;;;6.70;99.90;;;;;;5048635;28;20112;-87
2023/04/30 02:32:21;;;;;;;12.07;4.25;;;6.70;99.90;;;;;;5053454;28;20487;-87
2023/04/30 02:34:47;;;;;;;7.20;3.80;;;6.70;99.90;;;;;;5055519;28;20060;-87
2023/04/30 02:37:13;;;;;;;13.90;4.03;;;6.60;99.90;;;;;;5053908;28;20041;-87
2023/04/30 02:39:40;;;;;;;10.02;3.95;;;6.60;99.90;;;;;;5050396;28;20041;-87
2023/04/30 02:42:06;;;;;;;9.98;3.72;;;6.60;99.90;;;;;;5048642;28;20060;-87
2023/04/30 02:44:33;;;;;;;11.60;3.75;;;6.60;99.90;;;;;;5059634;28;20032;-87
2023/04/30 02:47:00;;;;;;;6.95;3.50;;;6.60;99.90;;;;;;5036023;28;20040;-87
2023/04/30 02:49:26;;;;;;;9.98;3.97;;;6.60;99.90;;;;;;5053857;28;20037;-87
2023/04/30 02:51:52;;;;;;;10.45;4.72;;;6.60;99.90;;;;;;5054083;28;20032;-87
2023/04/30 02:54:18;;;;;;;8.13;3.35;;;6.60;99.90;;;;;;5064634;28;20143;-87
2023/04/30 02:56:44;;;;;;;11.10;4.13;;;6.60;99.90;;;;;;5048229;28;20073;-87
2023/04/30 02:59:09;;;;;;;5.97;3.22;;;6.50;99.90;;;;;;5057762;28;20162;-87
2023/04/30 03:01:35;;;;;;;9.05;3.92;;;6.50;99.90;;;;;;5052779;28;20182;-87
2023/04/30 03:04:02;;;;;;;10.40;3.92;;;6.60;99.90;;;;;;5052761;28;20725;-87
2023/04/30 03:06:28;;;;;;;7.57;3.42;;;6.60;99.90;;;;;;5069501;28;20227;-87
2023/04/30 03:08:54;;;;;;;8.07;3.70;;;6.60;99.90;;;;;;5056904;28;20048;-87
2023/04/30 03:11:20;;;;;;;7.82;3.40;;;6.60;99.90;;;;;;5062074;28;20407;-87
2023/04/30 03:13:50;;;;;;;11.90;3.97;;;6.60;99.90;;;;;;5052181;28;20052;-87
2023/04/30 03:16:17;;;;;;;14.05;4.32;;;6.50;99.90;;;;;;5053097;28;20546;-88
2023/04/30 03:18:44;;;;;;;6.85;3.70;;;6.50;99.90;;;;;;5056652;28;20036;-87
2023/04/30 03:21:09;;;;;;;10.43;4.28;;;6.50;99.90;;;;;;5064364;28;20033;-88
2023/04/30 03:23:35;;;;;;;11.02;4.82;;;6.50;99.90;;;;;;5047049;28;20029;-87
2023/04/30 03:26:01;;;;;;;7.60;3.58;;;6.50;99.90;;;;;;5101230;28;20028;-87
2023/04/30 03:28:26;;;;;;;8.30;3.97;;;6.50;99.90;;;;;;5059771;28;20037;-87
2023/04/30 03:30:52;;;;;;;9.25;4.25;;;6.50;99.90;;;;;;5067968;28;20032;-88
2023/04/30 03:33:18;;;;;;;7.85;4.28;;;6.70;99.90;;;;;;5067954;28;20094;-87
2023/04/30 03:35:44;;;;;;;8.40;3.72;;;6.50;99.90;;;;;;5065373;28;20060;-86
2023/04/30 03:38:10;;;;;;;9.35;4.07;;;6.50;99.90;;;;;;5064148;28;20036;-88
2023/04/30 03:40:36;;;;;;;8.38;3.80;;;6.50;99.90;;;;;;5061946;28;20033;-87
2023/04/30 03:43:02;;;;;;;8.13;3.72;;;6.50;99.90;;;;;;5057300;28;20044;-87
2023/04/30 03:45:27;;;;;;;7.68;3.65;;;6.50;99.90;;;;;;5057732;28;20040;-87
2023/04/30 03:47:53;;;;;;;6.65;3.60;;;6.50;99.90;;;;;;5049637;28;20037;-87
2023/04/30 03:50:18;;;;;;;7.00;3.58;;;6.50;99.90;;;;;;5077436;28;20047;-87
2023/04/30 03:52:45;;;;;;;10.80;4.10;;;6.50;99.90;;;;;;5055306;28;20045;-87
2023/04/30 03:55:11;;;;;;;9.27;4.05;;;6.60;99.90;;;;;;5049763;28;20064;-87
2023/04/30 03:57:37;;;;;;;8.35;3.47;;;6.60;99.90;;;;;;5055205;28;20040;-88
2023/04/30 04:00:06;;;;;;;9.98;3.50;;;6.50;99.90;;;;;;5051970;28;20446;-87
2023/04/30 04:02:32;;;;;;;9.77;3.63;;;6.50;99.90;;;;;;5048720;28;20041;-87
2023/04/30 04:04:58;;;;;;;8.27;4.03;;;6.50;99.90;;;;;;5065195;28;20033;-86
2023/04/30 04:07:24;;;;;;;9.35;4.38;;;6.50;99.90;;;;;;5052340;28;20048;-86
2023/04/30 04:09:50;;;;;;;9.85;4.88;;;6.50;99.90;;;;;;5052968;28;20039;-86
2023/04/30 04:12:15;;;;;;;8.82;4.97;;;6.50;99.90;;;;;;5035200;28;20090;-87
2023/04/30 04:14:41;;;;;;;6.50;3.83;;;6.50;99.90;;;;;;5052934;28;20033;-87
2023/04/30 04:17:07;;;;;;;9.75;4.07;;;6.40;99.90;;;;;;5051319;28;20033;-87
2023/04/30 04:19:32;;;;;;;11.40;4.20;;;6.40;99.90;;;;;;5056441;28;20078;-88
2023/04/30 04:21:58;;;;;;;9.23;4.45;;;6.40;99.90;;;;;;5052150;28;20048;-87
2023/04/30 04:24:24;;;;;;;7.05;3.67;;;6.40;99.90;;;;;;5051540;28;20090;-87
2023/04/30 04:26:50;;;;;;;8.90;4.82;;;6.50;99.90;;;;;;5051294;28;20067;-87
2023/04/30 04:29:15;;;;;;;6.43;4.03;;;6.50;99.90;;;;;;5051671;28;20037;-87
2023/04/30 04:31:41;;;;;;;7.82;4.30;;;6.50;99.90;;;;;;5051142;28;20483;-87
2023/04/30 04:34:07;;;;;;;11.10;5.65;;;6.50;99.90;;;;;;5055011;28;20036;-87
2023/04/30 04:36:33;;;;;;;10.77;4.55;;;6.50;99.90;;;;;;5064332;28;20051;-87
2023/04/30 04:39:02;;;;;;;9.02;5.35;;;6.50;99.90;;;;;;5057142;28;20396;-88
2023/04/30 04:41:33;;;;;;;13.15;5.75;;;6.60;99.90;;;;;;5052216;28;20420;-87
2023/04/30 04:44:04;;;;;;;15.52;6.10;;;6.10;99.90;;;;;;5050869;28;20037;-87
2023/04/30 04:46:31;;;;;;;12.23;5.63;;;6.50;99.90;;;;;;5055812;28;20029;-87
2023/04/30 04:48:57;;;;;;;10.23;5.50;;;6.50;99.90;;;;;;5049997;28;20416;-87
2023/04/30 04:51:23;;;;;;;10.35;6.30;;;6.50;99.90;;;;;;5056328;28;20052;-87
2023/04/30 04:53:49;;;;;;;12.88;6.15;;;6.50;99.90;;;;;;5050544;28;20037;-87
2023/04/30 04:56:15;;;;;;;12.10;5.63;;;6.50;99.90;;;;;;5051865;28;20096;-87
2023/04/30 04:58:41;;;;;;;10.50;7.47;;;6.40;99.90;;;;;;5057819;28;20044;-87
2023/04/30 05:01:08;;;;;;;13.57;7.20;;;6.40;99.90;;;;;;5058021;28;20037;-87
2023/04/30 05:03:37;;;;;;;15.18;9.15;;;6.50;99.90;;;;;;5050269;28;20049;-87
2023/04/30 05:06:03;;;;;;;13.02;7.68;;;6.50;99.90;;;;;;5049968;28;20033;-88
2023/04/30 05:08:29;;;;;;;11.38;6.97;;;6.50;99.90;;;;;;5051658;28;20041;-87
2023/04/30 05:10:54;;;;;;;11.85;7.10;;;6.50;99.90;;;;;;5051061;28;20560;-86
2023/04/30 05:13:20;;;;;;;10.40;6.22;;;6.60;99.90;;;;;;5041055;28;20040;-87
2023/04/30 05:15:48;;;;;;;12.45;6.93;;;6.60;99.90;;;;;;5052947;28;20102;-87
2023/04/30 05:18:14;;;;;;;13.65;7.25;;;6.60;99.90;;;;;;5058664;28;20083;-87
2023/04/30 05:20:39;;;;;;;12.95;7.05;;;6.60;99.90;;;;;;5052635;28;20037;-87
2023/04/30 05:23:05;;;;;;;15.15;7.15;;;6.60;99.90;;;;;;5058677;28;20044;-87
2023/04/30 05:25:30;;;;;;;13.15;6.78;;;6.60;99.90;;;;;;5051951;28;20035;-87
2023/04/30 05:27:56;;;;;;;9.82;6.18;;;6.60;99.90;;;;;;5057104;28;20427;-87
2023/04/30 05:30:22;;;;;;;13.93;7.25;;;6.60;99.90;;;;;;5041731;28;20071;-87
2023/04/30 05:32:50;;;;;;;13.80;7.07;;;6.60;99.90;;;;;;5051509;28;20083;-88
2023/04/30 05:35:17;;;;;;;12.65;7.80;;;6.70;99.90;;;;;;5037673;28;20037;-87
2023/04/30 05:37:43;;;;;;;15.82;7.28;;;6.70;99.90;;;;;;5047877;28;20044;-87
2023/04/30 05:40:09;;;;;;;14.05;6.22;;;6.80;99.90;;;;;;5071208;28;20036;-86
2023/04/30 05:42:35;;;;;;;9.50;5.32;;;6.90;99.90;;;;;;5055506;28;20037;-87
2023/04/30 05:45:01;;;;;;;10.63;5.63;;;6.90;99.90;;;;;;5048783;28;20029;-87
2023/04/30 05:47:27;;;;;;;13.80;5.57;;;7.00;99.90;;;;;;5049309;28;20086;-87
2023/04/30 05:49:52;;;;;;;10.77;5.13;;;7.10;99.90;;;;;;5055391;28;20037;-87
2023/04/30 05:52:18;;;;;;;8.95;5.05;;;7.20;99.90;;;;;;5050521;28;20186;-87
2023/04/30 05:54:43;;;;;;;16.33;4.72;;;7.30;99.90;;;;;;5059172;28;20040;-87
2023/04/30 05:57:09;;;;;;;12.60;4.30;;;7.40;99.90;;;;;;5053564;28;20048;-86
2023/04/30 05:59:35;;;;;;;12.50;4.57;;;7.40;99.90;;;;;;5057600;28;20049;-87
2023/04/30 06:02:00;;;;;;;14.25;4.30;;;7.50;99.90;;;;;;5050138;28;20036;-87
2023/04/30 06:04:26;;;;;;;16.33;4.05;;;7.50;99.90;;;;;;5050189;28;20124;-87
2023/04/30 06:06:52;;;;;;;9.43;4.22;;;7.60;99.90;;;;;;5063359;28;20399;-87
2023/04/30 06:09:17;;;;;;;11.90;4.45;;;7.70;99.90;;;;;;5049982;28;20033;-87
2023/04/30 06:11:44;;;;;;;11.48;4.22;;;7.80;99.90;;;;;;5056441;28;20462;-87
2023/04/30 06:14:10;;;;;;;11.52;4.25;;;7.70;99.90;;;;;;5049579;28;20432;-86
2023/04/30 06:16:36;;;;;;;11.38;4.28;;;7.80;99.90;;;;;;5065705;28;20057;-87
2023/04/30 06:19:02;;;;;;;8.10;4.68;;;7.80;99.90;;;;;;5050713;28;20037;-87
2023/04/30 06:21:28;;;;;;;12.70;4.40;;;7.90;99.90;;;;;;5054003;28;20044;-87
2023/04/30 06:23:53;;;;;;;15.00;4.75;;;8.00;99.90;;;;;;5050417;28;20033;-87
2023/04/30 06:26:19;;;;;;;12.40;4.40;;;8.00;99.90;;;;;;5053518;28;20072;-87
2023/04/30 06:28:45;;;;;;;11.23;4.18;;;8.10;99.90;;;;;;5060731;28;20529;-88
2023/04/30 06:31:11;;;;;;;14.98;3.80;;;8.20;99.90;;;;;;5055502;28;20033;-87
2023/04/30 06:33:37;;;;;;;11.77;4.00;;;8.30;99.90;;;;;;5053913;28;20102;-87
2023/04/30 06:36:03;;;;;;;11.07;3.90;;;8.40;99.90;;;;;;5050073;28;20479;-87
2023/04/30 06:38:28;;;;;;;12.38;3.88;;;8.50;99.90;;;;;;5049028;28;20045;-87
2023/04/30 06:40:54;;;;;;;15.00;4.22;;;8.50;99.90;;;;;;5049842;28;20045;-87
2023/04/30 06:43:20;;;;;;;7.75;4.15;;;8.60;99.90;;;;;;5052715;28;20040;-87
2023/04/30 06:45:45;;;;;;;8.95;4.00;;;8.70;99.90;;;;;;5052107;28;20383;-87
2023/04/30 06:48:11;;;;;;;9.82;3.78;;;8.70;99.90;;;;;;5055569;28;20078;-87
2023/04/30 06:50:43;;;;;;;12.15;4.05;;;8.70;99.90;;;;;;5048579;28;20120;-87
2023/04/30 06:53:10;;;;;;;13.30;3.35;;;8.80;99.90;;;;;;5050224;28;20043;-87
2023/04/30 06:55:35;;;;;;;18.65;3.47;;;8.80;99.90;;;;;;5050030;28;20101;-87
2023/04/30 06:58:01;;;;;;;9.48;3.33;;;9.40;99.90;;;;;;5048467;28;20433;-87
2023/04/30 07:00:27;;;;;;;10.38;2.83;;;8.90;99.90;;;;;;5049539;28;20057;-87
2023/04/30 07:02:52;;;;;;;17.67;3.70;;;9.00;99.90;;;;;;5065403;28;20049;-87
2023/04/30 07:05:18;;;;;;;13.80;3.42;;;8.90;99.90;;;;;;5049259;28;20037;-86
2023/04/30 07:07:44;;;;;;;10.23;3.13;;;8.90;99.90;;;;;;5057694;28;20101;-87
2023/04/30 07:10:10;;;;;;;10.73;3.85;;;9.00;99.90;;;;;;5055752;28;20134;-87
2023/04/30 07:12:36;;;;;;;13.43;3.55;;;9.10;99.90;;;;;;5054712;28;20482;-87
2023/04/30 07:15:02;;;;;;;11.50;3.58;;;9.10;99.90;;;;;;5049371;28;20033;-87
2023/04/30 07:17:28;;;;;;;11.68;3.47;;;9.10;99.90;;;;;;5053102;28;20495;-87
2023/04/30 07:19:53;;;;;;;10.13;3.40;;;9.20;99.90;;;;;;5049830;28;20037;-87
2023/04/30 07:22:19;;;;;;;12.73;3.17;;;9.30;99.90;;;;;;5051086;28;20045;-87
2023/04/30 07:24:45;;;;;;;9.65;3.15;;;9.40;99.90;;;;;;5052910;28;20824;-87
2023/04/30 07:27:10;;;;;;;13.05;2.78;;;9.50;99.90;;;;;;5049327;28;20434;-87
2023/04/30 07:29:36;;;;;;;13.77;3.13;;;9.50;99.90;;;;;;5056466;28;20123;-87
2023/04/30 07:32:01;;;;;;;14.90;3.72;;;9.60;99.90;;;;;;5057161;28;20047;-87
2023/04/30 07:34:27;;;;;;;10.93;3.17;;;9.70;99.90;;;;;;5068733;28;20044;-86
2023/04/30 07:36:53;;;;;;;7.88;2.63;;;10.10;99.90;;;;;;5051732;28;20049;-87
2023/04/30 07:39:19;;;;;;;11.50;2.70;;;10.00;99.90;;;;;;5057404;28;20047;-87
2023/04/30 07:41:44;;;;;;;12.45;2.72;;;9.90;99.90;;;;;;5052453;28;20052;-87
2023/04/30 07:44:11;;;;;;;10.40;3.10;;;10.00;99.90;;;;;;5054926;28;20037;-87
2023/04/30 07:46:36;;;;;;;12.48;3.75;;;10.00;99.90;;;;;;5058104;28;20039;-87
2023/04/30 07:49:02;;;;;;;7.18;2.97;;;10.10;99.90;;;;;;5085297;28;20481;-87
2023/04/30 07:51:28;;;;;;;10.70;2.60;;;10.20;99.90;;;;;;5052562;28;20041;-86
2023/04/30 07:53:54;;;;;;;8.23;3.03;;;10.30;99.90;;;;;;5052554;28;20041;-87
2023/04/30 07:56:20;;;;;;;12.48;3.00;;;10.40;99.90;;;;;;5058149;28;20071;-87
2023/04/30 07:58:46;;;;;;;11.25;2.63;;;10.50;99.90;;;;;;5052283;28;20080;-87
2023/04/30 08:01:11;;;;;;;7.10;2.30;;;10.60;99.90;;;;;;5059008;28;20071;-86
2023/04/30 08:03:37;;;;;;;12.43;3.03;;;10.60;99.90;;;;;;5056317;28;20048;-87
2023/04/30 08:06:04;;;;;;;9.43;3.00;;;10.60;99.90;;;;;;5050991;28;20052;-87
2023/04/30 08:08:30;;;;;;;12.63;3.08;;;10.80;99.90;;;;;;5051113;28;20036;-87
2023/04/30 08:10:55;;;;;;;15.05;3.30;;;10.80;99.90;;;;;;5054087;28;20387;-87
2023/04/30 08:13:21;;;;;;;10.52;3.03;;;10.90;99.90;;;;;;5085341;28;20044;-87
2023/04/30 08:15:46;;;;;;;13.90;3.17;;;11.00;99.90;;;;;;5051200;28;20060;-86
2023/04/30 08:18:12;;;;;;;8.88;2.38;;;11.20;99.90;;;;;;5055326;28;20041;-87
2023/04/30 08:20:38;;;;;;;8.02;2.33;;;11.30;99.90;;;;;;5055312;28;20037;-87
2023/04/30 08:23:04;;;;;;;9.30;2.58;;;11.30;99.90;;;;;;5048039;28;20059;-87
2023/04/30 08:25:30;;;;;;;9.30;2.63;;;11.50;99.90;;;;;;5050336;28;20491;-87
2023/04/30 08:27:56;;;;;;;8.65;2.13;;;11.60;99.90;;;;;;5051781;28;20039;-87
2023/04/30 08:30:22;;;;;;;8.07;3.03;;;11.60;99.90;;;;;;5050733;28;20120;-87
2023/04/30 08:32:48;;;;;;;9.85;2.35;;;11.70;99.90;;;;;;5055148;28;20072;-87
2023/04/30 08:35:15;;;;;;;11.63;3.15;;;11.90;99.90;;;;;;5054704;28;20494;-86
2023/04/30 08:37:41;;;;;;;10.85;2.70;;;11.80;99.90;;;;;;5052902;28;20076;-87
2023/04/30 08:40:08;;;;;;;9.82;2.70;;;11.70;99.90;;;;;;5088447;28;20064;-87
2023/04/30 08:42:36;;;;;;;12.50;2.72;;;11.70;99.90;;;;;;5038833;28;20481;-88
2023/04/30 08:45:03;;;;;;;8.25;2.72;;;11.70;99.90;;;;;;5052059;28;20536;-87
2023/04/30 08:47:29;;;;;;;11.27;2.58;;;11.70;99.90;;;;;;5051342;28;20041;-87
2023/04/30 08:49:55;;;;;;;11.93;2.72;;;11.70;99.90;;;;;;5054076;28;20043;-87
2023/04/30 08:52:21;;;;;;;12.95;2.50;;;11.70;99.90;;;;;;5049988;28;20120;-87
2023/04/30 08:54:49;;;;;;;11.55;2.50;;;11.90;99.90;;;;;;5051475;28;20083;-87
2023/04/30 08:57:15;;;;;;;6.97;2.55;;;12.10;99.90;;;;;;5053616;28;20060;-87
2023/04/30 08:59:44;;;;;;;10.50;2.70;;;12.40;99.90;;;;;;5041920;28;20048;-87
2023/04/30 09:02:10;;;;;;;8.82;2.65;;;12.50;99.90;;;;;;5055403;28;20131;-87
2023/04/30 09:04:35;;;;;;;8.15;2.45;;;12.60;99.90;;;;;;5051110;28;20107;-87
2023/04/30 09:07:03;;;;;;;6.55;2.10;;;13.00;99.90;;;;;;5055162;28;20119;-87
2023/04/30 09:09:29;;;;;;;11.05;2.58;;;12.90;99.90;;;;;;5051105;28;20044;-87
2023/04/30 09:12:16;;;;;;;7.28;2.33;;;12.90;99.90;;;;;;5058497;28;20063;-84
2023/04/30 09:15:03;;;;;;;7.00;2.20;;;13.00;99.90;;;;;;5049639;28;20052;-87
2023/04/30 09:17:30;;;;;;;9.63;2.70;;;13.00;99.90;;;;;;5055175;28;20401;-87
2023/04/30 09:20:12;;;;;;;10.50;2.80;;;13.00;99.90;;;;;;5037956;28;20115;-88
2023/04/30 09:22:39;;;;;;;6.18;2.30;;;13.00;99.90;;;;;;5049364;28;20494;-87
2023/04/30 09:25:06;;;;;;;10.13;2.33;;;13.10;99.90;;;;;;5051442;28;20044;-87
2023/04/30 09:27:32;;;;;;;5.90;2.20;;;13.20;99.90;;;;;;5049942;28;20035;-87
2023/04/30 09:29:58;;;;;;;11.82;2.28;;;13.20;99.90;;;;;;5053171;28;20115;-87
2023/04/30 09:32:24;;;;;;;10.82;2.75;;;13.40;99.90;;;;;;5057309;28;20041;-87
2023/04/30 09:34:50;;;;;;;8.65;2.28;;;13.50;99.90;;;;;;5051051;28;20040;-87
2023/04/30 09:37:15;;;;;;;8.93;2.50;;;13.50;99.90;;;;;;5050358;28;20411;-87
2023/04/30 09:39:53;;;;;;;7.18;2.15;;;13.40;99.90;;;;;;5049674;28;20413;-87
2023/04/30 09:42:19;;;;;;;8.25;2.10;;;13.90;99.90;;;;;;5088270;28;20077;-86
2023/04/30 09:44:45;;;;;;;10.32;2.33;;;13.60;99.90;;;;;;5083975;28;20046;-87
2023/04/30 09:47:19;;;;;;;9.95;2.00;;;13.70;99.90;;;;;;5057285;28;20040;-87
2023/04/30 09:49:52;;;;;;;4.55;2.00;;;13.70;99.90;;;;;;5051573;28;20032;-88
2023/04/30 09:52:19;;;;;;;8.30;2.20;;;13.80;99.90;;;;;;5048654;28;20047;-87
2023/04/30 09:54:45;;;;;;;7.45;2.22;;;13.90;99.90;;;;;;5045869;28;20041;-87
2023/04/30 09:57:13;;;;;;;11.45;2.45;;;14.10;99.90;;;;;;5062691;28;20036;-88
2023/04/30 09:59:43;;;;;;;9.50;2.53;;;14.10;99.90;;;;;;5049527;28;20063;-88
2023/04/30 10:02:09;;;;;;;8.35;2.65;;;14.20;99.90;;;;;;5060230;28;20047;-86
2023/04/30 10:04:36;;;;;;;7.93;2.25;;;14.30;99.90;;;;;;5060395;28;20044;-87
2023/04/30 10:07:18;;;;;;;7.13;2.78;;;14.20;99.90;;;;;;5054235;28;20104;-87
2023/04/30 10:10:07;;;;;;;9.43;2.75;;;14.30;99.90;;;;;;5069826;28;20044;-87
2023/04/30 10:12:49;;;;;;;6.53;2.33;;;14.30;99.90;;;;;;5048582;28;20049;-87
2023/04/30 10:15:19;;;;;;;6.40;2.72;;;14.50;99.90;;;;;;5071106;28;20052;-87
2023/04/30 10:17:52;;;;;;;13.10;2.40;;;14.60;99.90;;;;;;5054016;28;20040;-87
2023/04/30 10:20:20;;;;;;;8.15;2.70;;;14.70;99.90;;;;;;5052937;28;20084;-87
2023/04/30 10:22:47;;;;;;;6.38;2.20;;;14.70;99.90;;;;;;5052646;28;20053;-87
2023/04/30 10:25:13;;;;;;;9.52;2.83;;;14.70;99.90;;;;;;5055100;28;20040;-86
2023/04/30 10:27:39;;;;;;;8.75;2.47;;;14.70;99.90;;;;;;5054357;28;20086;-87
2023/04/30 10:30:08;;;;;;;8.75;2.30;;;14.80;99.90;;;;;;5049919;28;20049;-87
2023/04/30 10:32:42;;;;;;;8.82;2.40;;;15.00;99.90;;;;;;5050523;28;20435;-87
2023/04/30 10:35:21;;;;;;;8.77;3.22;;;15.10;99.90;;;;;;5049168;28;20106;-87
2023/04/30 10:38:02;;;;;;;7.65;2.70;;;15.10;99.90;;;;;;5035395;28;20475;-87
2023/04/30 10:40:28;;;;;;;10.70;2.20;;;15.30;99.90;;;;;;5051174;28;20531;-87
2023/04/30 10:42:54;;;;;;;8.75;2.70;;;15.50;99.90;;;;;;5054711;28;20116;-87
2023/04/30 10:45:35;;;;;;;7.32;2.40;;;15.40;99.90;;;;;;5050658;28;20041;-87
2023/04/30 10:48:02;;;;;;;10.35;2.45;;;15.50;99.90;;;;;;5057623;28;20102;-87
2023/04/30 10:50:29;;;;;;;9.30;3.35;;;15.70;99.90;;;;;;5059843;28;20071;-87
2023/04/30 10:53:05;;;;;;;8.65;2.72;;;15.80;99.90;;;;;;5059083;28;20514;-87
2023/04/30 10:55:31;;;;;;;8.65;2.75;;;15.80;99.90;;;;;;5050873;28;20072;-87
2023/04/30 10:57:57;;;;;;;7.50;2.40;;;15.90;99.90;;;;;;5051707;28;20045;-87
2023/04/30 11:00:28;;;;;;;6.13;2.30;;;16.00;99.90;;;;;;5057884;28;20055;-87
2023/04/30 11:03:02;;;;;;;8.10;2.58;;;16.10;99.90;;;;;;5083656;28;20045;-87
2023/04/30 11:05:38;;;;;;;9.20;2.95;;;16.40;99.90;;;;;;5059304;28;20045;-86
2023/04/30 11:08:05;;;;;;;5.53;2.03;;;16.20;99.90;;;;;;5063283;28;20046;-87
2023/04/30 11:10:34;;;;;;;8.07;2.55;;;16.30;99.90;;;;;;5054501;28;20041;-87
2023/04/30 11:13:04;;;;;;;8.02;2.88;;;16.40;99.90;;;;;;5051962;28;20084;-87
2023/04/30 11:15:41;;;;;;;7.82;2.85;;;16.40;99.90;;;;;;5056676;28;20115;-87
2023/04/30 11:18:07;;;;;;;7.63;3.25;;;16.50;99.90;;;;;;5057488;28;20071;-87
2023/04/30 11:20:47;;;;;;;13.23;3.63;;;16.60;99.90;;;;;;5056492;28;20119;-87
2023/04/30 11:23:15;;;;;;;7.68;2.55;;;16.70;99.90;;;;;;5051646;28;20124;-87
2023/04/30 11:25:47;;;;;;;12.15;2.97;;;16.70;99.90;;;;;;5051102;28;20116;-87
2023/04/30 11:28:18;;;;;;;10.02;3.50;;;16.90;99.90;;;;;;5059660;28;20652;-87
2023/04/30 11:30:55;;;;;;;8.82;2.90;;;16.90;99.90;;;;;;5035044;28;20511;-87
2023/04/30 11:33:22;;;;;;;5.68;2.72;;;17.00;99.90;;;;;;5058914;28;20045;-87
2023/04/30 11:35:51;;;;;;;9.48;3.13;;;17.10;99.90;;;;;;5052690;28;20106;-87
2023/04/30 11:38:25;;;;;;;7.20;2.50;;;17.10;99.90;;;;;;5036671;28;20044;-87
2023/04/30 11:40:51;;;;;;;5.78;2.17;;;17.30;99.90;;;;;;5058429;28;20046;-87
2023/04/30 11:43:21;;;;;;;6.30;2.67;;;17.30;99.90;;;;;;5059951;28;20437;-87
2023/04/30 11:45:59;;;;;;;5.57;2.90;;;17.50;99.90;;;;;;5051594;28;20044;-87
2023/04/30 11:48:30;;;;;;;7.75;2.80;;;17.60;98.50;;;;;;5057959;28;20545;-87
2023/04/30 11:50:55;;;;;;;6.07;2.95;;;17.50;99.90;;;;;;5063251;28;20037;-87
2023/04/30 11:53:26;;;;;;;7.40;2.70;;;17.60;98.80;;;;;;5057848;28;20391;-87
2023/04/30 11:55:54;;;;;;;6.32;2.25;;;17.60;99.90;;;;;;5052622;28;20487;-86
2023/04/30 11:58:20;;;;;;;7.50;3.03;;;17.60;99.90;;;;;;5051844;28;20280;-87
2023/04/30 12:00:47;;;;;;;5.72;2.22;;;17.70;99.90;;;;;;5050409;28;20041;-87
2023/04/30 12:03:14;;;;;;;7.35;2.63;;;17.80;99.90;;;;;;5052486;28;20057;-87
2023/04/30 12:05:40;;;;;;;6.53;2.55;;;17.90;99.90;;;;;;5051892;28;20041;-87
2023/04/30 12:08:07;;;;;;;5.97;2.38;;;18.00;99.90;;;;;;5053983;28;20036;-88
2023/04/30 12:10:34;;;;;;;7.50;2.85;;;18.00;99.90;;;;;;5055245;28;20044;-87
2023/04/30 12:13:00;;;;;;;5.38;2.80;;;18.10;99.90;;;;;;5050723;28;20068;-87
2023/04/30 12:15:27;;;;;;;7.65;2.67;;;18.20;99.90;;;;;;5054017;28;20041;-86
2023/04/30 12:17:55;;;;;;;6.57;3.10;;;18.20;99.90;;;;;;5052398;28;20043;-87
2023/04/30 12:20:23;;;;;;;6.32;2.97;;;18.30;99.70;;;;;;5057265;28;20091;-87
2023/04/30 12:22:49;;;;;;;6.55;2.53;;;18.20;99.30;;;;;;5052042;28;20041;-87
2023/04/30 12:25:17;;;;;;;6.50;2.90;;;18.20;99.90;;;;;;5035049;28;20037;-87
2023/04/30 12:27:51;;;;;;;7.55;3.03;;;18.30;99.90;;;;;;5052439;28;20114;-87
2023/04/30 12:30:29;;;;;;;7.72;3.55;;;18.40;99.80;;;;;;5067407;28;20040;-87
2023/04/30 12:32:57;;;;;;;7.65;3.45;;;18.40;99.60;;;;;;5065920;28;20072;-87
2023/04/30 12:35:26;;;;;;;9.05;3.45;;;18.60;99.80;;;;;;5095126;28;20063;-87
2023/04/30 12:37:53;;;;;;;6.72;3.22;;;18.70;99.70;;;;;;5063504;28;20040;-87
2023/04/30 12:40:20;;;;;;;6.78;3.40;;;18.70;98.90;;;;;;5059155;28;20044;-87
2023/04/30 12:42:46;;;;;;;6.00;3.17;;;18.80;98.70;;;;;;5051005;28;20037;-87
2023/04/30 12:45:33;;;;;;;6.03;3.22;;;18.80;98.10;;;;;;5051445;28;20032;-87
2023/04/30 12:47:59;;;;;;;6.20;2.80;;;18.90;99.90;;;;;;5055343;28;20040;-87
2023/04/30 12:50:25;;;;;;;6.95;2.83;;;19.00;99.10;;;;;;5050423;28;20049;-87
2023/04/30 12:52:50;;;;;;;5.43;2.47;;;19.10;99.00;;;;;;5059511;28;20041;-87